Time;durP1;ratioP1;P1;durP2;ratioP2;P2;SDS_P1;SDS_P2;PMS_P1;PMS_P2;Temp;Humidity;BMP_temperature;BMP_pressure;BME280_temperature;BME280_humidity;BME280_pressure;Samples;Min_cycle;Max_cycle;Signal;HPM_P1;HPM_P2
2021/12/07 00:00:30;;;;;;;11.95;7.45;;;1.10;99.90;;;;;;5013751;28;20025;-95
2021/12/07 00:02:55;;;;;;;12.18;6.45;;;1.20;99.90;;;;;;5005192;28;20478;-94
2021/12/07 00:05:21;;;;;;;12.60;7.32;;;1.20;99.90;;;;;;5025378;28;20036;-93
2021/12/07 00:07:47;;;;;;;12.10;6.90;;;1.20;99.90;;;;;;5015272;28;20018;-91
2021/12/07 00:10:14;;;;;;;12.98;7.03;;;1.20;99.90;;;;;;5036796;28;20057;-93
2021/12/07 00:12:43;;;;;;;12.10;7.07;;;1.20;99.90;;;;;;5015810;28;20026;-92
2021/12/07 00:15:11;;;;;;;12.05;6.20;;;1.20;99.90;;;;;;5012699;28;20030;-93
2021/12/07 00:17:36;;;;;;;12.68;7.07;;;1.20;99.90;;;;;;5010403;28;20101;-93
2021/12/07 00:20:07;;;;;;;12.50;6.63;;;1.20;99.90;;;;;;5029584;28;20065;-93
2021/12/07 00:22:33;;;;;;;14.15;7.45;;;1.20;99.90;;;;;;5013209;28;20076;-93
2021/12/07 00:24:59;;;;;;;15.80;8.48;;;1.20;99.90;;;;;;5029794;28;20030;-93
2021/12/07 00:27:24;;;;;;;16.00;7.82;;;1.30;99.90;;;;;;5033082;28;20489;-94
2021/12/07 00:29:50;;;;;;;15.20;7.95;;;1.30;99.90;;;;;;5012669;28;20030;-95
2021/12/07 00:34:58;;;;;;;14.88;8.77;;;1.30;99.90;;;;;;5013988;28;20018;-95
2021/12/07 00:37:27;;;;;;;14.35;7.85;;;1.30;99.90;;;;;;5015468;28;20429;-95
2021/12/07 00:39:54;;;;;;;15.77;8.60;;;1.40;99.90;;;;;;5013478;28;20030;-95
2021/12/07 00:42:22;;;;;;;14.60;7.93;;;1.40;99.90;;;;;;5010148;28;20044;-95
2021/12/07 00:44:48;;;;;;;15.48;8.80;;;1.40;99.90;;;;;;5013271;28;20112;-95
2021/12/07 00:47:13;;;;;;;16.58;9.15;;;1.50;99.90;;;;;;5012416;28;20089;-95
2021/12/07 00:49:40;;;;;;;14.38;8.80;;;1.50;99.90;;;;;;5031314;28;20050;-96
2021/12/07 00:52:06;;;;;;;17.50;9.50;;;1.50;99.90;;;;;;5033054;28;20055;-96
2021/12/07 00:54:31;;;;;;;20.15;10.45;;;1.50;99.90;;;;;;5013670;28;20510;-96
2021/12/07 00:56:57;;;;;;;18.77;10.43;;;1.50;99.90;;;;;;5031576;28;20026;-95
2021/12/07 00:59:23;;;;;;;18.48;10.57;;;1.50;99.90;;;;;;5015660;28;20490;-94
2021/12/07 01:01:48;;;;;;;18.98;10.38;;;1.60;99.90;;;;;;5004734;28;20108;-94
2021/12/07 01:04:14;;;;;;;21.05;11.07;;;1.60;99.90;;;;;;5015763;28;20038;-93
2021/12/07 01:07:01;;;;;;;22.52;12.07;;;1.60;99.90;;;;;;5014584;28;20053;-94
2021/12/07 01:09:40;;;;;;;24.90;12.23;;;1.60;99.90;;;;;;5030269;28;20049;-94
2021/12/07 01:25:53;;;;;;;25.92;14.18;;;1.70;99.90;;;;;;5025504;28;20044;-95
2021/12/07 01:28:26;;;;;;;29.33;15.30;;;1.70;99.90;;;;;;5021049;28;20042;-93
2021/12/07 01:30:58;;;;;;;26.25;14.55;;;1.70;99.90;;;;;;5020075;28;20049;-94
2021/12/07 01:46:45;;;;;;;27.17;15.15;;;1.80;99.90;;;;;;5020882;28;20044;-94
2021/12/07 01:59:53;;;;;;;33.25;17.23;;;1.80;99.90;;;;;;5028596;28;20044;-95
2021/12/07 02:02:21;;;;;;;27.33;14.63;;;1.80;99.90;;;;;;5047645;28;20092;-95
2021/12/07 02:04:47;;;;;;;34.72;19.17;;;1.90;99.90;;;;;;5041873;28;20402;-96
2021/12/07 02:07:13;;;;;;;32.70;17.42;;;1.90;99.90;;;;;;5021497;28;20038;-95
2021/12/07 02:09:42;;;;;;;40.22;19.20;;;2.00;99.90;;;;;;5025150;28;20458;-95
2021/12/07 02:12:08;;;;;;;32.67;15.98;;;2.00;99.90;;;;;;5023868;28;20116;-94
2021/12/07 02:14:34;;;;;;;25.88;14.48;;;2.10;99.90;;;;;;5029495;28;20061;-96
2021/12/07 02:17:06;;;;;;;31.77;15.95;;;2.20;99.90;;;;;;5023740;28;20030;-96
2021/12/07 02:19:32;;;;;;;34.60;16.53;;;2.30;99.90;;;;;;5047682;28;20056;-95
2021/12/07 02:22:00;;;;;;;28.48;13.45;;;2.40;99.90;;;;;;5018615;28;20070;-96
2021/12/07 02:24:32;;;;;;;28.13;14.43;;;2.60;99.90;;;;;;5029057;28;20030;-96
2021/12/07 02:26:59;;;;;;;30.88;14.75;;;2.70;99.90;;;;;;5033611;28;20064;-96
2021/12/07 02:29:25;;;;;;;29.23;16.00;;;2.70;99.90;;;;;;5049927;28;20017;-95
2021/12/07 02:31:53;;;;;;;32.08;16.13;;;2.70;99.90;;;;;;5029718;28;20037;-95
2021/12/07 02:34:20;;;;;;;29.05;16.45;;;2.60;99.90;;;;;;5014559;28;20433;-94
2021/12/07 02:36:46;;;;;;;35.00;17.67;;;2.50;99.90;;;;;;5020357;28;20022;-95
2021/12/07 02:39:13;;;;;;;30.80;16.58;;;2.40;99.90;;;;;;5025784;28;20037;-95
2021/12/07 02:41:39;;;;;;;42.03;19.70;;;2.40;99.90;;;;;;5011538;28;20022;-94
2021/12/07 02:44:07;;;;;;;31.33;16.88;;;2.30;99.90;;;;;;5016485;28;20113;-95
2021/12/07 02:46:37;;;;;;;28.50;16.10;;;2.30;99.90;;;;;;5016731;28;20050;-94
2021/12/07 02:49:04;;;;;;;34.92;16.13;;;2.30;99.90;;;;;;5000469;28;20063;-95
2021/12/07 02:51:30;;;;;;;34.25;16.80;;;2.40;99.90;;;;;;5018452;28;20030;-95
2021/12/07 02:53:56;;;;;;;32.90;16.65;;;2.40;99.90;;;;;;5033226;28;20032;-95
2021/12/07 02:56:22;;;;;;;32.83;15.88;;;2.40;99.90;;;;;;5018896;28;20026;-95
2021/12/07 02:58:48;;;;;;;31.77;15.32;;;2.50;99.90;;;;;;5007993;28;20022;-94
2021/12/07 03:01:24;;;;;;;32.25;15.23;;;2.50;99.90;;;;;;5017900;28;20478;-94
2021/12/07 03:04:27;;;;;;;28.67;15.00;;;2.40;99.90;;;;;;5030055;28;20130;-94
2021/12/07 03:06:56;;;;;;;30.92;15.30;;;2.40;99.90;;;;;;5009843;28;20060;-95
2021/12/07 03:09:55;;;;;;;33.63;15.90;;;2.30;99.90;;;;;;5009289;28;20022;-94
2021/12/07 03:26:05;;;;;;;36.85;17.15;;;2.00;99.90;;;;;;5006720;28;20080;-95
2021/12/07 03:28:34;;;;;;;33.05;15.85;;;2.00;99.90;;;;;;5030352;28;20391;-95
2021/12/07 03:31:00;;;;;;;29.63;15.00;;;1.90;99.90;;;;;;5016865;28;20030;-95
2021/12/07 03:33:26;;;;;;;30.35;14.95;;;1.90;99.90;;;;;;5029906;28;20129;-94
2021/12/07 03:35:53;;;;;;;31.85;14.40;;;1.90;99.90;;;;;;5032778;28;20489;-93
2021/12/07 03:38:19;;;;;;;28.52;15.20;;;1.90;99.90;;;;;;5006995;28;20056;-93
2021/12/07 03:40:45;;;;;;;31.52;14.50;;;1.90;99.90;;;;;;5010872;28;20026;-95
2021/12/07 03:43:12;;;;;;;36.47;14.93;;;1.90;99.90;;;;;;5008852;28;20058;-94
2021/12/07 03:45:37;;;;;;;31.08;11.90;;;1.90;99.90;;;;;;5014058;28;20551;-96
2021/12/07 03:48:08;;;;;;;32.50;12.98;;;1.80;99.90;;;;;;5009431;28;20030;-93
2021/12/07 03:50:35;;;;;;;29.50;12.70;;;1.80;99.90;;;;;;5017128;28;20044;-95
2021/12/07 03:53:01;;;;;;;26.50;11.55;;;1.90;99.90;;;;;;5015904;28;20025;-95
2021/12/07 03:55:27;;;;;;;24.73;10.10;;;1.90;99.90;;;;;;5012636;28;20062;-95
2021/12/07 03:57:52;;;;;;;25.90;9.15;;;1.90;99.90;;;;;;5033462;28;20042;-94
2021/12/07 04:00:21;;;;;;;32.15;10.98;;;1.90;99.90;;;;;;5030488;28;20023;-94
2021/12/07 04:02:50;;;;;;;28.95;8.55;;;2.00;99.90;;;;;;5008333;28;21657;-95
2021/12/07 04:05:18;;;;;;;23.15;7.63;;;2.00;99.90;;;;;;5027174;28;20470;-94
2021/12/07 04:07:44;;;;;;;20.70;6.75;;;2.10;99.90;;;;;;5016606;28;20033;-95
2021/12/07 04:10:13;;;;;;;17.05;7.05;;;2.10;99.90;;;;;;5031858;28;20026;-95
2021/12/07 04:12:40;;;;;;;27.63;6.25;;;2.10;99.90;;;;;;5030511;28;20022;-95
2021/12/07 04:15:07;;;;;;;21.75;6.63;;;2.10;99.90;;;;;;5029431;28;20053;-95
2021/12/07 04:17:33;;;;;;;20.75;6.47;;;2.00;99.90;;;;;;5016099;28;20490;-94
2021/12/07 04:19:59;;;;;;;17.50;5.38;;;2.10;99.90;;;;;;5016734;28;20041;-95
2021/12/07 04:22:25;;;;;;;24.45;5.43;;;2.10;99.90;;;;;;5030792;28;20029;-95
2021/12/07 04:24:51;;;;;;;23.27;5.03;;;2.00;99.90;;;;;;5015142;28;20026;-95
2021/12/07 04:27:17;;;;;;;17.65;5.38;;;2.00;99.90;;;;;;5016662;28;20470;-94
2021/12/07 04:29:43;;;;;;;20.20;5.22;;;2.00;99.90;;;;;;5040690;28;20033;-93
2021/12/07 04:32:08;;;;;;;15.90;4.28;;;2.00;99.90;;;;;;5001845;28;20039;-96
2021/12/07 04:34:34;;;;;;;20.30;4.53;;;2.00;99.90;;;;;;5013829;28;20034;-95
2021/12/07 04:37:00;;;;;;;17.73;4.55;;;2.00;99.90;;;;;;5014426;28;20029;-96
2021/12/07 04:39:25;;;;;;;26.17;4.60;;;2.00;99.90;;;;;;5028109;28;20121;-95
2021/12/07 04:41:52;;;;;;;24.23;4.72;;;2.00;99.90;;;;;;5012374;28;20025;-96
2021/12/07 04:44:18;;;;;;;20.13;4.15;;;1.90;99.90;;;;;;5032889;28;20081;-96
2021/12/07 04:46:52;;;;;;;25.08;4.25;;;2.00;99.90;;;;;;5030994;28;20064;-96
2021/12/07 04:57:43;;;;;;;23.70;4.43;;;2.00;99.90;;;;;;5016855;28;20045;-95
2021/12/07 05:00:20;;;;;;;17.38;3.97;;;2.00;99.90;;;;;;5030964;28;20006;-94
2021/12/07 05:02:52;;;;;;;19.65;3.72;;;1.90;99.90;;;;;;5027468;28;20489;-96
2021/12/07 05:05:19;;;;;;;20.60;3.78;;;1.90;99.90;;;;;;5015152;28;20034;-95
2021/12/07 05:07:52;;;;;;;18.75;4.10;;;1.90;99.90;;;;;;5028604;28;20349;-95
2021/12/07 05:37:39;;;;;;;21.27;3.90;;;1.90;99.90;;;;;;5015649;28;20084;-94
2021/12/07 05:40:34;;;;;;;17.52;4.18;;;1.80;99.90;;;;;;5014524;28;20097;-95
2021/12/07 05:43:01;;;;;;;18.65;3.85;;;1.90;99.90;;;;;;5010548;28;20021;-95
2021/12/07 05:45:34;;;;;;;25.80;3.55;;;1.80;99.90;;;;;;5011659;28;20508;-96
2021/12/07 05:48:03;;;;;;;19.60;3.58;;;1.80;99.90;;;;;;5004561;28;20026;-93
2021/12/07 05:50:32;;;;;;;17.98;3.28;;;1.80;99.90;;;;;;5016010;28;20034;-94
2021/12/07 05:52:59;;;;;;;11.25;2.60;;;1.80;99.90;;;;;;5017447;28;20017;-94
2021/12/07 05:55:24;;;;;;;19.17;3.33;;;1.80;99.90;;;;;;5013130;28;20026;-92
2021/12/07 05:57:50;;;;;;;16.67;3.22;;;1.80;99.90;;;;;;5008310;28;20081;-95
2021/12/07 06:00:27;;;;;;;11.35;3.10;;;1.80;99.90;;;;;;5013093;28;20474;-95
2021/12/07 06:02:58;;;;;;;19.15;3.13;;;1.80;99.90;;;;;;5009420;28;20137;-93
2021/12/07 06:05:26;;;;;;;17.33;3.33;;;1.80;99.90;;;;;;5014780;28;20061;-95
2021/12/07 06:07:52;;;;;;;19.17;3.05;;;1.80;99.90;;;;;;5014554;28;20030;-96
2021/12/07 06:10:19;;;;;;;19.98;2.72;;;1.80;99.90;;;;;;5015275;28;20030;-96
2021/12/07 06:12:44;;;;;;;20.05;2.97;;;1.70;99.90;;;;;;5012524;28;20532;-96
2021/12/07 06:15:13;;;;;;;20.75;3.22;;;1.70;99.90;;;;;;5013769;28;20057;-94
2021/12/07 06:17:39;;;;;;;16.17;3.38;;;1.80;99.90;;;;;;5032878;28;20030;-96
2021/12/07 06:20:06;;;;;;;20.23;3.22;;;1.70;99.90;;;;;;5014108;28;20482;-96
2021/12/07 06:22:32;;;;;;;14.60;2.40;;;1.80;99.90;;;;;;5013944;28;20018;-95
2021/12/07 06:24:57;;;;;;;21.25;3.53;;;1.80;99.90;;;;;;5020483;28;20056;-94
2021/12/07 06:27:23;;;;;;;13.43;2.72;;;1.90;99.90;;;;;;5031014;28;20506;-95
2021/12/07 06:29:48;;;;;;;16.38;2.72;;;1.90;99.90;;;;;;5014447;28;20541;-95
2021/12/07 06:32:14;;;;;;;14.57;2.45;;;1.90;99.90;;;;;;5013452;28;20026;-94
2021/12/07 06:34:40;;;;;;;16.55;2.97;;;2.00;99.90;;;;;;5032229;28;20032;-94
2021/12/07 06:37:06;;;;;;;18.83;2.65;;;2.00;99.90;;;;;;5015491;28;20072;-95
2021/12/07 06:39:33;;;;;;;18.60;2.45;;;2.10;99.90;;;;;;5018529;28;20037;-94
2021/12/07 06:41:59;;;;;;;21.20;2.90;;;2.10;99.90;;;;;;5027205;28;20030;-95
2021/12/07 06:44:24;;;;;;;17.17;2.70;;;2.10;99.90;;;;;;5010596;28;20014;-95
2021/12/07 06:46:50;;;;;;;18.95;2.85;;;2.10;99.90;;;;;;5013392;28;20482;-96
2021/12/07 06:49:17;;;;;;;18.77;2.67;;;2.00;99.90;;;;;;5035543;28;20021;-95
2021/12/07 06:51:43;;;;;;;16.23;2.58;;;2.00;99.90;;;;;;5015097;28;20034;-95
2021/12/07 06:54:09;;;;;;;15.57;2.70;;;2.00;99.90;;;;;;4999971;28;20663;-94
2021/12/07 06:56:35;;;;;;;22.75;3.10;;;1.90;99.90;;;;;;5012189;28;20029;-95
2021/12/07 06:59:00;;;;;;;16.25;2.67;;;1.90;99.90;;;;;;5031550;28;20025;-96
2021/12/07 07:01:33;;;;;;;19.23;2.55;;;1.80;99.90;;;;;;5013379;28;20383;-95
2021/12/07 07:03:59;;;;;;;20.90;3.70;;;1.80;99.90;;;;;;5021792;28;20026;-96
2021/12/07 07:06:24;;;;;;;16.75;3.70;;;1.80;99.90;;;;;;4998493;28;20041;-94
2021/12/07 07:08:50;;;;;;;19.83;2.63;;;1.80;99.90;;;;;;5015355;28;20026;-96
2021/12/07 07:11:18;;;;;;;11.38;2.28;;;1.80;99.90;;;;;;5009754;28;20033;-96
2021/12/07 07:13:50;;;;;;;16.38;3.00;;;1.80;99.90;;;;;;5014299;28;20073;-94
2021/12/07 07:16:16;;;;;;;;;;;1.80;99.90;;;;;;5023869;28;20116;-95
2021/12/07 07:18:41;;;;;;;19.27;2.92;;;1.80;99.90;;;;;;5035511;28;19961;-96
2021/12/07 07:21:07;;;;;;;15.15;2.70;;;1.80;99.90;;;;;;5028093;28;20045;-96
2021/12/07 07:23:34;;;;;;;18.15;2.95;;;1.80;99.90;;;;;;5017335;28;20073;-95
2021/12/07 07:26:00;;;;;;;9.18;3.47;;;1.80;99.90;;;;;;5017916;28;20038;-95
2021/12/07 07:28:29;;;;;;;16.10;2.65;;;1.70;99.90;;;;;;5010698;28;20041;-94
2021/12/07 07:30:56;;;;;;;16.35;2.30;;;1.80;99.90;;;;;;5021749;28;20033;-95
2021/12/07 07:33:22;;;;;;;14.05;2.33;;;1.80;99.90;;;;;;5018744;28;20033;-96
2021/12/07 07:35:47;;;;;;;17.30;3.38;;;1.80;99.90;;;;;;5018690;28;20030;-94
2021/12/07 07:38:18;;;;;;;11.13;3.13;;;1.80;99.90;;;;;;5016362;28;20026;-96
2021/12/07 07:40:48;;;;;;;17.00;3.65;;;1.80;99.90;;;;;;5018084;28;20037;-94
2021/12/07 07:43:16;;;;;;;18.10;3.25;;;1.90;99.90;;;;;;5019266;28;20477;-94
2021/12/07 07:45:47;;;;;;;13.65;3.40;;;1.90;99.90;;;;;;5031286;28;20022;-94
2021/12/07 07:48:13;;;;;;;20.42;4.38;;;1.80;99.90;;;;;;5018925;28;20436;-95
2021/12/07 07:50:40;;;;;;;29.77;5.18;;;1.80;99.90;;;;;;5017549;28;20112;-94
2021/12/07 07:53:06;;;;;;;19.52;4.80;;;1.80;99.90;;;;;;5016607;28;20041;-94
2021/12/07 07:55:33;;;;;;;22.15;5.40;;;1.80;99.90;;;;;;5015347;28;20030;-94
2021/12/07 07:57:58;;;;;;;17.73;5.88;;;1.90;99.90;;;;;;5013464;28;20018;-96
2021/12/07 08:00:24;;;;;;;18.83;5.90;;;1.90;99.90;;;;;;5020043;28;20482;-95
2021/12/07 08:02:50;;;;;;;17.27;6.03;;;1.90;99.90;;;;;;5018324;28;20515;-94
2021/12/07 08:05:16;;;;;;;22.52;7.53;;;1.90;99.90;;;;;;5035287;28;20073;-94
2021/12/07 08:07:47;;;;;;;22.23;8.13;;;2.00;99.90;;;;;;5022776;28;20076;-94
2021/12/07 08:10:15;;;;;;;21.60;7.50;;;2.00;99.90;;;;;;5016730;28;20033;-96
2021/12/07 08:12:44;;;;;;;33.33;8.55;;;2.00;99.90;;;;;;5017410;28;20029;-96
2021/12/07 08:15:10;;;;;;;25.98;9.15;;;2.00;99.90;;;;;;5015062;28;20026;-95
2021/12/07 08:17:36;;;;;;;33.85;9.73;;;2.10;99.90;;;;;;5014839;28;20367;-95
2021/12/07 08:20:03;;;;;;;26.42;9.20;;;2.10;99.90;;;;;;4995243;28;20074;-95
2021/12/07 08:22:30;;;;;;;29.48;10.15;;;2.10;99.90;;;;;;5044205;28;20029;-96
2021/12/07 08:24:57;;;;;;;33.38;11.40;;;2.10;99.90;;;;;;5021595;28;20436;-93
2021/12/07 08:27:30;;;;;;;29.38;9.95;;;2.20;99.90;;;;;;5017591;28;20662;-92
2021/12/07 08:29:56;;;;;;;33.38;10.73;;;2.20;99.90;;;;;;5005467;28;20041;-93
2021/12/07 08:32:21;;;;;;;27.38;9.90;;;2.20;99.90;;;;;;5027888;28;20018;-94
2021/12/07 08:34:47;;;;;;;32.00;10.52;;;2.30;99.90;;;;;;5017813;28;20797;-94
2021/12/07 08:37:12;;;;;;;29.45;10.15;;;2.30;99.90;;;;;;5015882;28;20044;-94
2021/12/07 08:39:38;;;;;;;35.17;11.55;;;2.30;99.90;;;;;;5016553;28;20093;-93
2021/12/07 08:42:05;;;;;;;30.35;9.27;;;2.40;99.90;;;;;;5028378;28;20156;-94
2021/12/07 08:44:31;;;;;;;31.10;10.60;;;2.40;99.90;;;;;;5014636;28;20002;-95
2021/12/07 08:46:59;;;;;;;31.52;10.30;;;2.40;99.90;;;;;;5028888;28;20037;-96
2021/12/07 08:49:30;;;;;;;35.08;10.50;;;2.50;99.90;;;;;;5014834;28;20018;-94
2021/12/07 08:52:00;;;;;;;;;;;2.50;99.90;;;;;;5015660;28;20064;-95
2021/12/07 09:02:21;;;;;;;26.58;9.48;;;2.60;99.90;;;;;;5011427;28;20031;-96
2021/12/07 09:04:48;;;;;;;25.67;8.90;;;2.60;99.90;;;;;;5032079;28;20026;-95
2021/12/07 09:07:14;;;;;;;31.65;9.55;;;2.60;99.90;;;;;;5024299;28;20072;-95
2021/12/07 09:09:42;;;;;;;34.97;9.38;;;2.60;99.90;;;;;;5019493;28;20394;-96
2021/12/07 09:12:10;;;;;;;25.88;8.57;;;2.60;99.90;;;;;;5010357;28;20026;-95
2021/12/07 09:14:36;;;;;;;26.17;8.77;;;2.60;99.90;;;;;;5014025;28;20022;-95
2021/12/07 09:17:04;;;;;;;33.10;8.90;;;2.60;99.90;;;;;;5012148;28;20498;-96
2021/12/07 09:19:29;;;;;;;28.65;9.95;;;2.60;99.90;;;;;;5020461;28;20049;-96
2021/12/07 09:21:55;;;;;;;26.45;9.15;;;2.70;99.90;;;;;;5020214;28;20029;-95
2021/12/07 09:24:21;;;;;;;28.13;9.20;;;2.80;99.90;;;;;;5015298;28;20061;-95
2021/12/07 09:26:47;;;;;;;28.13;8.93;;;2.80;99.90;;;;;;5016233;28;20045;-95
2021/12/07 09:29:13;;;;;;;28.33;8.82;;;2.90;99.90;;;;;;5014108;28;20018;-94
2021/12/07 09:31:40;;;;;;;26.70;8.82;;;3.00;99.90;;;;;;5012968;28;20121;-96
2021/12/07 09:34:09;;;;;;;27.02;8.48;;;3.00;99.90;;;;;;5013890;28;20025;-93
2021/12/07 09:36:35;;;;;;;25.45;8.50;;;3.10;99.90;;;;;;5013233;28;20497;-93
2021/12/07 09:39:02;;;;;;;28.42;8.45;;;3.10;99.90;;;;;;5011956;28;20049;-93
2021/12/07 09:41:28;;;;;;;26.63;8.52;;;3.20;99.90;;;;;;5013181;28;20105;-94
2021/12/07 09:43:54;;;;;;;24.23;8.52;;;3.20;99.90;;;;;;5008911;28;20068;-94
2021/12/07 09:46:20;;;;;;;30.38;9.20;;;3.20;99.90;;;;;;5013369;28;20121;-95
2021/12/07 09:48:47;;;;;;;26.67;7.85;;;3.20;99.90;;;;;;5016226;28;20081;-92
2021/12/07 09:51:16;;;;;;;28.92;9.45;;;3.20;99.90;;;;;;5016908;28;20064;-91
2021/12/07 09:53:43;;;;;;;36.35;8.85;;;3.30;99.90;;;;;;5015285;28;20022;-93
2021/12/07 09:56:09;;;;;;;23.88;7.07;;;3.30;99.90;;;;;;5016873;28;20049;-92
2021/12/07 09:58:36;;;;;;;28.92;9.43;;;3.30;99.90;;;;;;5012208;28;20057;-94
2021/12/07 10:01:03;;;;;;;25.02;6.80;;;3.40;99.90;;;;;;5024625;28;20025;-92
2021/12/07 10:03:29;;;;;;;19.65;6.82;;;3.40;99.90;;;;;;5014864;28;20037;-93
2021/12/07 10:05:55;;;;;;;32.17;8.10;;;3.40;99.90;;;;;;5025510;28;20038;-93
2021/12/07 10:08:20;;;;;;;21.02;6.25;;;3.40;99.90;;;;;;5018380;28;20053;-93
2021/12/07 10:10:55;;;;;;;23.30;6.45;;;3.40;99.90;;;;;;5015602;28;20030;-92
2021/12/07 10:13:23;;;;;;;21.23;7.28;;;3.40;99.90;;;;;;5009312;28;20029;-91
2021/12/07 10:15:51;;;;;;;21.17;7.07;;;3.40;99.90;;;;;;5017512;28;20483;-90
2021/12/07 10:18:20;;;;;;;20.65;6.00;;;3.40;99.90;;;;;;5016026;28;20103;-91
2021/12/07 10:20:49;;;;;;;18.95;6.20;;;3.50;99.90;;;;;;5026389;28;20029;-91
2021/12/07 10:23:15;;;;;;;20.88;5.45;;;3.50;99.90;;;;;;5015107;28;20208;-91
2021/12/07 10:25:49;;;;;;;27.98;6.10;;;3.60;99.90;;;;;;5014643;28;20058;-91
2021/12/07 10:28:40;;;;;;;19.60;5.05;;;3.60;99.90;;;;;;5014382;28;20022;-90
2021/12/07 10:31:08;;;;;;;16.30;4.32;;;3.70;99.90;;;;;;5003368;28;20034;-93
2021/12/07 10:33:44;;;;;;;21.20;4.60;;;3.80;99.90;;;;;;5012307;28;20548;-92
2021/12/07 10:36:09;;;;;;;16.77;4.35;;;3.80;99.90;;;;;;5014733;28;20474;-94
2021/12/07 10:38:37;;;;;;;14.35;5.07;;;3.90;99.90;;;;;;5014400;28;20052;-93
2021/12/07 10:41:09;;;;;;;19.10;5.13;;;4.00;99.90;;;;;;5016689;28;20022;-93
2021/12/07 10:43:40;;;;;;;13.23;4.68;;;4.10;99.90;;;;;;5013830;28;20029;-93
2021/12/07 10:46:31;;;;;;;14.02;4.68;;;4.10;99.90;;;;;;5032050;28;20504;-93
2021/12/07 10:49:16;;;;;;;15.38;5.20;;;4.20;99.90;;;;;;5015450;28;20030;-92
2021/12/07 10:52:05;;;;;;;17.33;4.15;;;4.30;99.90;;;;;;5018176;28;20394;-93
2021/12/07 10:54:43;;;;;;;23.23;5.18;;;4.40;99.90;;;;;;5012946;28;20122;-92
2021/12/07 10:57:13;;;;;;;17.33;4.82;;;4.50;99.90;;;;;;5015633;28;20133;-92
2021/12/07 10:59:40;;;;;;;15.90;4.07;;;4.50;99.90;;;;;;5013832;28;20038;-92
2021/12/07 11:02:15;;;;;;;13.98;4.25;;;4.50;99.90;;;;;;5022444;28;20116;-93
2021/12/07 11:04:41;;;;;;;12.75;3.95;;;4.50;99.90;;;;;;5023563;28;20027;-91
2021/12/07 11:07:09;;;;;;;17.92;4.60;;;4.50;99.90;;;;;;5011552;28;20403;-92
2021/12/07 11:09:46;;;;;;;16.42;4.18;;;4.50;99.90;;;;;;5011039;28;20371;-91
2021/12/07 11:12:15;;;;;;;18.85;4.32;;;4.50;99.90;;;;;;5015073;28;20036;-91
2021/12/07 11:14:49;;;;;;;14.05;4.40;;;4.50;99.90;;;;;;5015122;28;20053;-91
2021/12/07 11:17:24;;;;;;;20.35;5.43;;;4.50;99.90;;;;;;5014869;28;20049;-90
2021/12/07 11:19:51;;;;;;;15.25;4.97;;;4.60;99.90;;;;;;5015350;28;20034;-90
2021/12/07 11:22:19;;;;;;;13.57;4.78;;;4.60;99.90;;;;;;5011118;28;20033;-91
2021/12/07 11:24:46;;;;;;;13.60;4.70;;;4.60;99.90;;;;;;5014727;28;20041;-92
2021/12/07 11:30:15;;;;;;;13.82;3.88;;;4.70;99.90;;;;;;5016385;28;20084;-91
2021/12/07 11:32:54;;;;;;;15.38;3.85;;;4.80;99.90;;;;;;5031250;28;20112;-92
2021/12/07 11:35:34;;;;;;;12.15;3.80;;;4.80;99.90;;;;;;5007141;28;20034;-90
2021/12/07 11:38:03;;;;;;;21.85;5.15;;;4.90;99.90;;;;;;5016904;28;20026;-90
2021/12/07 11:40:32;;;;;;;19.30;4.30;;;4.90;99.90;;;;;;5023318;28;20022;-92
2021/12/07 11:42:59;;;;;;;13.88;4.40;;;4.90;99.90;;;;;;5017630;28;20034;-91
2021/12/07 11:45:33;;;;;;;15.55;4.07;;;5.00;99.90;;;;;;5016406;28;20034;-91
2021/12/07 11:48:05;;;;;;;11.13;3.20;;;5.00;99.90;;;;;;5024834;28;20037;-88
2021/12/07 11:50:38;;;;;;;12.77;3.40;;;5.10;99.90;;;;;;5010815;28;20026;-90
2021/12/07 11:53:08;;;;;;;13.30;3.60;;;5.20;99.90;;;;;;5015424;28;20199;-90
2021/12/07 11:55:36;;;;;;;16.67;3.85;;;5.30;99.90;;;;;;5011083;28;20424;-92
2021/12/07 11:58:07;;;;;;;17.77;4.13;;;5.30;99.90;;;;;;5011253;28;20481;-90
2021/12/07 12:00:37;;;;;;;15.32;3.97;;;5.40;99.90;;;;;;5003132;28;20478;-90
2021/12/07 12:03:11;;;;;;;15.50;4.00;;;5.50;99.90;;;;;;5030226;28;20036;-91
2021/12/07 12:05:39;;;;;;;22.35;5.30;;;5.50;99.90;;;;;;5030656;28;20398;-90
2021/12/07 12:08:08;;;;;;;16.83;3.70;;;5.60;99.90;;;;;;5029404;28;20469;-90
2021/12/07 12:10:37;;;;;;;15.27;3.30;;;5.60;99.90;;;;;;5026189;28;20022;-90
2021/12/07 12:13:17;;;;;;;14.35;3.60;;;5.60;99.90;;;;;;5014561;28;20495;-91
2021/12/07 12:15:58;;;;;;;12.95;3.97;;;5.70;99.90;;;;;;5024413;28;20018;-91
2021/12/07 12:18:57;;;;;;;11.27;3.35;;;5.70;99.90;;;;;;5011713;28;20089;-92
2021/12/07 12:21:28;;;;;;;16.98;3.78;;;5.80;99.90;;;;;;5031741;28;20117;-92
2021/12/07 12:24:07;;;;;;;12.07;2.80;;;5.80;99.90;;;;;;5015771;28;20080;-91
2021/12/07 12:26:35;;;;;;;11.73;3.10;;;5.90;99.90;;;;;;5014650;28;20037;-92
2021/12/07 12:29:13;;;;;;;12.13;2.50;;;5.90;99.90;;;;;;5015208;28;20022;-91
2021/12/07 12:31:45;;;;;;;12.27;2.55;;;5.90;99.90;;;;;;5020234;28;20026;-90
2021/12/07 12:34:17;;;;;;;7.72;1.98;;;5.90;99.90;;;;;;5013540;28;20034;-92
2021/12/07 12:36:58;;;;;;;14.00;3.15;;;5.90;99.90;;;;;;5004966;28;20489;-91
2021/12/07 12:39:45;;;;;;;19.98;4.72;;;5.80;99.90;;;;;;5025247;28;20036;-92
2021/12/07 12:42:36;;;;;;;15.05;2.63;;;5.80;99.90;;;;;;5015689;28;20026;-91
2021/12/07 12:45:23;;;;;;;12.85;3.08;;;5.80;99.90;;;;;;5004708;28;20045;-91
2021/12/07 12:48:03;;;;;;;11.75;3.00;;;5.80;99.90;;;;;;5014802;28;20037;-93
2021/12/07 12:50:35;;;;;;;10.93;2.55;;;5.90;99.90;;;;;;5016319;28;20052;-90
2021/12/07 12:53:03;;;;;;;14.88;2.58;;;5.90;99.90;;;;;;5015015;28;20026;-90
2021/12/07 12:55:53;;;;;;;15.05;3.15;;;5.90;99.90;;;;;;5015733;28;20116;-90
2021/12/07 12:58:38;;;;;;;16.83;2.95;;;5.80;99.90;;;;;;5016338;28;20033;-90
2021/12/07 13:01:11;;;;;;;14.63;3.38;;;5.80;99.90;;;;;;5008809;28;20027;-91
2021/12/07 13:03:44;;;;;;;12.57;2.53;;;5.80;99.90;;;;;;5020454;28;20026;-91
2021/12/07 13:06:14;;;;;;;12.55;2.08;;;5.80;99.90;;;;;;5013808;28;20050;-91
2021/12/07 13:09:07;;;;;;;12.35;2.78;;;5.70;99.90;;;;;;5015273;28;20110;-91
2021/12/07 13:11:38;;;;;;;;;;;5.80;99.90;;;;;;5012492;28;20026;-90
2021/12/07 13:14:13;;;;;;;13.63;2.67;;;5.70;99.90;;;;;;5008072;28;19921;-90
2021/12/07 13:16:51;;;;;;;10.38;2.42;;;5.70;99.90;;;;;;5016332;28;20373;-90
2021/12/07 13:19:17;;;;;;;20.00;3.67;;;5.60;99.90;;;;;;5014563;28;20133;-90
2021/12/07 13:21:44;;;;;;;15.20;2.05;;;5.60;99.90;;;;;;5019112;28;20564;-91
2021/12/07 13:24:32;;;;;;;7.40;2.25;;;5.60;99.90;;;;;;5019441;28;20029;-91
2021/12/07 13:26:57;;;;;;;8.05;2.10;;;5.50;99.90;;;;;;5015205;28;20516;-90
2021/12/07 13:29:25;;;;;;;11.77;2.13;;;5.50;99.90;;;;;;5014328;28;20070;-90
2021/12/07 13:31:57;;;;;;;17.08;2.38;;;5.40;99.90;;;;;;5016773;28;20040;-90
2021/12/07 13:34:28;;;;;;;16.55;3.10;;;5.40;99.90;;;;;;5026457;28;20022;-90
2021/12/07 13:36:58;;;;;;;9.10;2.17;;;5.40;99.90;;;;;;5018338;28;20038;-90
2021/12/07 13:39:24;;;;;;;18.48;2.60;;;5.40;99.90;;;;;;5019502;28;20026;-90
2021/12/07 13:41:58;;;;;;;13.02;2.55;;;5.30;99.90;;;;;;5015448;28;20141;-91
2021/12/07 13:44:26;;;;;;;15.40;2.55;;;5.30;99.90;;;;;;5017553;28;21616;-91
2021/12/07 13:46:54;;;;;;;18.60;2.67;;;5.30;99.90;;;;;;5033978;28;20038;-91
2021/12/07 13:49:20;;;;;;;11.30;2.45;;;5.30;99.90;;;;;;5019760;28;20021;-90
2021/12/07 13:51:46;;;;;;;14.60;2.30;;;5.20;99.90;;;;;;5014525;28;20030;-89
2021/12/07 13:54:17;;;;;;;9.45;1.58;;;5.20;99.90;;;;;;5033861;28;20109;-88
2021/12/07 13:56:43;;;;;;;13.98;2.28;;;5.20;99.90;;;;;;5015593;28;20482;-90
2021/12/07 13:59:11;;;;;;;10.85;2.25;;;5.20;99.90;;;;;;5017658;28;20053;-90
2021/12/07 14:01:39;;;;;;;10.73;2.50;;;5.20;99.90;;;;;;5008727;28;20042;-90
2021/12/07 14:04:07;;;;;;;12.23;2.10;;;5.10;99.90;;;;;;5025761;28;20049;-89
2021/12/07 14:06:34;;;;;;;14.45;2.20;;;5.20;99.90;;;;;;5016542;28;20033;-90
2021/12/07 14:09:10;;;;;;;11.93;1.92;;;5.10;99.90;;;;;;5010975;28;20037;-89
2021/12/07 14:11:38;;;;;;;12.07;2.72;;;5.10;99.90;;;;;;5016030;28;20029;-90
2021/12/07 14:14:10;;;;;;;13.10;2.72;;;5.10;99.90;;;;;;5014936;28;20084;-90
2021/12/07 14:16:36;;;;;;;11.82;2.03;;;5.10;99.90;;;;;;5012233;28;20030;-89
2021/12/07 14:19:05;;;;;;;11.38;2.20;;;5.00;99.90;;;;;;5015999;28;20042;-90
2021/12/07 14:21:31;;;;;;;11.43;1.55;;;5.00;99.90;;;;;;5014224;28;20062;-91
2021/12/07 14:24:04;;;;;;;11.35;2.10;;;5.00;99.90;;;;;;5016561;28;20057;-91
2021/12/07 14:26:34;;;;;;;11.90;1.95;;;5.00;99.90;;;;;;5014981;28;20034;-91
2021/12/07 14:29:12;;;;;;;9.02;1.83;;;4.90;99.90;;;;;;5016588;28;20073;-91
2021/12/07 14:31:39;;;;;;;15.50;2.95;;;4.90;99.90;;;;;;5016302;28;20057;-89
2021/12/07 14:34:14;;;;;;;17.50;2.67;;;4.90;99.90;;;;;;5016439;28;20037;-90
2021/12/07 14:36:52;;;;;;;13.23;3.00;;;4.90;99.90;;;;;;5014064;28;20104;-90